createdAt,value
2023-03-12T00:05:21.582Z,23.6
2023-03-12T00:15:21.354Z,23.4
2023-03-12T00:25:22.012Z,23.4
2023-03-12T00:35:21.680Z,23.7
2023-03-12T00:45:22.604Z,23.8
2023-03-12T00:55:23.012Z,23.6
2023-03-12T01:05:23.027Z,23.5
2023-03-12T01:15:23.194Z,23.6
2023-03-12T01:25:24.543Z,23.6
2023-03-12T01:35:24.980Z,23.8
2023-03-12T01:45:25.827Z,23.5
2023-03-12T01:55:25.687Z,23.2
2023-03-12T02:05:25.977Z,23.6
2023-03-12T02:15:26.688Z,23.6
2023-03-12T02:25:26.236Z,23.1
2023-03-12T02:35:26.519Z,23.2
2023-03-12T02:45:26.624Z,23.4
2023-03-12T02:55:27.116Z,25.4
2023-03-12T03:05:07.313Z,23.4
2023-03-12T03:15:07.417Z,23.5
2023-03-12T03:25:08.228Z,23.6
2023-03-12T03:35:08.399Z,23.6
2023-03-12T03:45:07.985Z,23.6
2023-03-12T03:55:07.862Z,23.9
2023-03-12T04:05:08.988Z,23.6
2023-03-12T04:15:10.303Z,23.6
2023-03-12T04:25:11.661Z,23.8
2023-03-12T04:35:12.820Z,23.8
2023-03-12T04:45:14.644Z,23.9
2023-03-12T04:55:16.296Z,23.5
2023-03-12T05:05:16.314Z,23.6
2023-03-12T05:15:17.071Z,23.9
2023-03-12T05:25:16.604Z,23.6
2023-03-12T05:35:17.121Z,24.3
2023-03-12T05:45:26.380Z,36.6
2023-03-12T05:55:44.700Z,45
2023-03-12T06:06:01.806Z,38.9
2023-03-12T06:16:18.441Z,39.3
2023-03-12T06:26:35.640Z,38.4
2023-03-12T06:36:52.619Z,38.9
2023-03-12T06:47:10.583Z,36.8
2023-03-12T06:57:27.623Z,36.4
2023-03-12T07:07:46.510Z,37
2023-03-12T07:18:03.751Z,35.8
2023-03-12T07:28:22.339Z,38.3
2023-03-12T07:38:41.001Z,38.3
2023-03-12T07:48:58.738Z,37.9
2023-03-12T07:59:17.251Z,38.3
2023-03-12T08:09:32.790Z,37.4
2023-03-12T08:19:48.796Z,38
2023-03-12T08:30:05.008Z,37.8
2023-03-12T08:40:22.419Z,37
2023-03-12T08:50:38.542Z,31.1
2023-03-12T09:05:17.061Z,37.4
2023-03-12T09:15:32.794Z,37.6
2023-03-12T09:25:47.988Z,37.6
2023-03-12T09:36:06.784Z,35.5
2023-03-12T09:46:26.390Z,37.3
2023-03-12T09:56:47.536Z,37.2
2023-03-12T10:07:09.667Z,36.5
2023-03-12T10:17:30.466Z,37.2
2023-03-12T10:27:52.292Z,36.3
2023-03-12T10:38:13.996Z,38.1
2023-03-12T10:48:35.421Z,36.3
2023-03-12T10:58:57.499Z,36.7
2023-03-12T11:09:17.667Z,36.5
2023-03-12T11:19:36.630Z,37.6
2023-03-12T11:29:57.310Z,36.6
2023-03-12T11:40:18.316Z,37.9
2023-03-12T11:50:38.954Z,36.7
2023-03-12T12:00:54.461Z,35.5
2023-03-12T12:11:09.514Z,35.4
2023-03-12T12:21:26.064Z,38.3
2023-03-12T12:31:43.720Z,22.6
2023-03-12T12:41:59.251Z,37.1
2023-03-12T12:52:15.118Z,36.8
2023-03-12T13:02:27.723Z,29.5
2023-03-12T13:12:33.095Z,30.6
2023-03-12T13:22:40.021Z,30.3
2023-03-12T13:32:46.517Z,27.8
2023-03-12T13:42:50.149Z,28.4
2023-03-12T13:52:53.436Z,27.3
2023-03-12T14:02:56.715Z,27.3
2023-03-12T14:12:59.982Z,27.4
2023-03-12T14:23:02.690Z,27
2023-03-12T14:33:05.758Z,26.8
2023-03-12T14:43:09.284Z,27.2
2023-03-12T14:53:11.823Z,27.1
2023-03-12T15:05:09.016Z,27.2
2023-03-12T15:15:12.771Z,27.1
2023-03-12T15:25:15.739Z,26.9
2023-03-12T15:35:17.753Z,26.7
2023-03-12T15:45:19.751Z,24.6
2023-03-12T15:55:19.293Z,23.6
2023-03-12T16:05:19.155Z,23.5
2023-03-12T16:15:19.963Z,24.6
2023-03-12T16:25:22.129Z,24.3
2023-03-12T16:35:23.928Z,24.3
2023-03-12T16:45:25.857Z,24.3
2023-03-12T16:55:28.860Z,26.4
2023-03-12T17:05:31.835Z,26.6
2023-03-12T17:15:35.052Z,26.4
2023-03-12T17:25:35.864Z,26.1
2023-03-12T17:35:36.433Z,24
2023-03-12T17:45:38.153Z,24.4
2023-03-12T17:55:37.672Z,25.9
2023-03-12T18:05:38.705Z,24.2
2023-03-12T18:15:38.804Z,24
2023-03-12T18:25:39.320Z,24.3
2023-03-12T18:35:39.701Z,24.3
2023-03-12T18:45:39.862Z,24.4
2023-03-12T18:55:40.311Z,25.9
2023-03-12T19:05:40.124Z,24.1
2023-03-12T19:15:40.560Z,24.6
2023-03-12T19:25:40.587Z,24.3
2023-03-12T19:35:41.190Z,24.1
2023-03-12T19:45:41.481Z,24.1
2023-03-12T19:55:41.835Z,24
2023-03-12T20:05:41.584Z,24.8
2023-03-12T20:15:41.788Z,24.5
2023-03-12T20:25:42.184Z,24.2
2023-03-12T20:35:42.187Z,24.4
2023-03-12T20:45:41.946Z,24.1
2023-03-12T20:55:42.452Z,24.2
2023-03-12T21:05:07.676Z,24.2
2023-03-12T21:15:08.249Z,25.3
2023-03-12T21:25:08.697Z,24.2
2023-03-12T21:35:09.261Z,24.3
2023-03-12T21:45:09.203Z,23.9
2023-03-12T21:55:10.077Z,24.1
2023-03-12T22:05:11.099Z,24
2023-03-12T22:15:12.305Z,24.3
2023-03-12T22:25:13.663Z,24
2023-03-12T22:35:16.182Z,24.3
2023-03-12T22:45:18.112Z,23.6
2023-03-12T22:55:19.804Z,23.8
2023-03-12T23:05:21.511Z,23.6
2023-03-12T23:15:24.461Z,24.3
2023-03-12T23:25:22.032Z,23.9
2023-03-12T23:35:23.143Z,26.2
2023-03-12T23:45:23.296Z,25.5
2023-03-12T23:55:23.681Z,26.1
